createdAt,value
2023-01-02T00:06:17.582Z,24.40185546875
2023-01-02T00:16:17.578Z,25.6103515625
2023-01-02T00:26:17.451Z,24.30419921875
2023-01-02T00:36:17.406Z,24.30419921875
2023-01-02T00:46:17.341Z,24.30419921875
2023-01-02T00:56:17.243Z,23.9013671875
2023-01-02T01:06:17.176Z,24.8046875
2023-01-02T01:16:17.184Z,23.40087890625
2023-01-02T01:26:17.022Z,26.3916015625
2023-01-02T01:36:16.961Z,26.708984375
2023-01-02T01:46:16.942Z,26.708984375
2023-01-02T01:56:16.829Z,24.90234375
2023-01-02T02:06:16.762Z,27.7099609375
2023-01-02T02:16:16.796Z,25.09765625
2023-01-02T02:26:16.632Z,27.392578125
2023-01-02T02:36:16.554Z,25.7080078125
2023-01-02T02:46:16.524Z,23.9990234375
2023-01-02T02:56:16.426Z,24.59716796875
2023-01-02T03:06:16.439Z,24.0966796875
2023-01-02T03:16:16.350Z,22.0947265625
2023-01-02T03:26:16.197Z,23.8037109375
2023-01-02T03:36:16.137Z,22.0947265625
2023-01-02T03:46:16.194Z,21.59423828125
2023-01-02T03:56:15.957Z,21.49658203125
2023-01-02T04:06:15.890Z,20.99609375
2023-01-02T04:16:15.913Z,21.10595703125
2023-01-02T04:26:15.778Z,20.99609375
2023-01-02T04:36:15.716Z,20.8984375
2023-01-02T04:46:15.677Z,20.8984375
2023-01-02T04:56:15.569Z,20.8984375
2023-01-02T05:06:15.515Z,21.20361328125
2023-01-02T05:16:15.464Z,20.703125
2023-01-02T05:26:15.355Z,20.30029296875
2023-01-02T05:36:15.382Z,19.7021484375
2023-01-02T05:46:15.267Z,19.7998046875
2023-01-02T05:56:15.114Z,19.6044921875
2023-01-02T06:06:15.184Z,19.39697265625
2023-01-02T06:16:15.033Z,19.10400390625
2023-01-02T06:26:14.909Z,18.896484375
2023-01-02T06:36:14.824Z,18.798828125
2023-01-02T06:46:14.839Z,18.603515625
2023-01-02T06:56:14.693Z,18.39599609375
2023-01-02T07:06:14.620Z,18.29833984375
2023-01-02T07:16:14.683Z,18.20068359375
2023-01-02T07:26:14.489Z,18.29833984375
2023-01-02T07:36:14.443Z,18.10302734375
2023-01-02T07:46:14.522Z,18.10302734375
2023-01-02T07:56:14.260Z,18.00537109375
2023-01-02T08:06:14.186Z,17.8955078125
2023-01-02T08:16:14.280Z,17.7001953125
2023-01-02T08:26:14.053Z,17.5048828125
2023-01-02T08:36:13.964Z,17.39501953125
2023-01-02T08:46:13.985Z,17.19970703125
2023-01-02T08:56:13.826Z,17.19970703125
2023-01-02T09:06:18.110Z,17.19970703125
2023-01-02T09:16:13.733Z,17.00439453125
2023-01-02T09:26:13.628Z,17.00439453125
2023-01-02T09:36:13.653Z,16.89453125
2023-01-02T09:46:13.562Z,16.796875
2023-01-02T09:56:17.758Z,16.796875
2023-01-02T10:06:13.349Z,16.50390625
2023-01-02T10:16:13.325Z,16.50390625
2023-01-02T10:26:13.211Z,16.50390625
2023-01-02T10:36:13.119Z,16.6015625
2023-01-02T10:46:13.234Z,16.6015625
2023-01-02T10:56:12.996Z,16.39404296875
2023-01-02T11:06:26.140Z,16.39404296875
2023-01-02T11:16:12.966Z,16.29638671875
2023-01-02T11:26:12.812Z,16.39404296875
2023-01-02T11:36:12.745Z,16.39404296875
2023-01-02T11:46:12.744Z,16.50390625
2023-01-02T11:56:12.574Z,16.39404296875
2023-01-02T12:06:12.630Z,16.69921875
2023-01-02T12:16:12.516Z,16.29638671875
2023-01-02T12:26:12.400Z,16.39404296875
2023-01-02T12:36:12.294Z,16.39404296875
2023-01-02T12:46:12.271Z,16.50390625
2023-01-02T12:56:12.283Z,16.29638671875
2023-01-02T13:06:45.769Z,16.29638671875
2023-01-02T13:16:24.412Z,16.10107421875
2023-01-02T13:26:11.968Z,16.29638671875
2023-01-02T13:36:17.127Z,15.6982421875
2023-01-02T13:46:19.289Z,15.90576171875
2023-01-02T13:56:11.729Z,15.7958984375
2023-01-02T14:06:11.679Z,15.4052734375
2023-01-02T14:16:11.804Z,15.00244140625
2023-01-02T14:26:11.621Z,14.697265625
2023-01-02T14:36:11.463Z,14.501953125
2023-01-02T14:46:11.438Z,14.29443359375
2023-01-02T14:56:11.459Z,14.19677734375
2023-01-02T15:06:11.270Z,14.09912109375
2023-01-02T15:16:11.246Z,14.00146484375
2023-01-02T15:26:31.613Z,13.90380859375
2023-01-02T15:36:11.061Z,13.90380859375
2023-01-02T15:46:11.011Z,13.7939453125
2023-01-02T15:56:10.911Z,13.6962890625
2023-01-02T16:06:10.812Z,13.5986328125
2023-01-02T16:16:15.441Z,13.5986328125
2023-01-02T16:26:10.668Z,13.5009765625
2023-01-02T16:36:10.684Z,13.4033203125
2023-01-02T16:46:10.649Z,13.4033203125
2023-01-02T16:56:10.486Z,13.3056640625
2023-01-02T17:06:10.417Z,13.19580078125
2023-01-02T17:16:10.380Z,13.19580078125
2023-01-02T17:26:10.278Z,13.09814453125
2023-01-02T17:36:10.194Z,13.19580078125
2023-01-02T17:46:38.765Z,13.09814453125
2023-01-02T17:56:21.178Z,13.3056640625
2023-01-02T18:06:09.974Z,13.3056640625
2023-01-02T18:16:09.963Z,13.4033203125
2023-01-02T18:26:09.855Z,13.4033203125
2023-01-02T18:36:09.753Z,13.4033203125
2023-01-02T18:46:09.720Z,13.3056640625
2023-01-02T18:56:09.633Z,13.4033203125
2023-01-02T19:06:09.565Z,13.4033203125
2023-01-02T19:16:09.512Z,13.5009765625
2023-01-02T19:26:09.425Z,13.5986328125
2023-01-02T19:36:09.356Z,13.6962890625
2023-01-02T19:46:09.334Z,13.90380859375
2023-01-02T19:56:09.222Z,14.19677734375
2023-01-02T20:06:09.119Z,14.404296875
2023-01-02T20:16:09.158Z,14.697265625
2023-01-02T20:26:08.990Z,15.4052734375
2023-01-02T20:36:13.556Z,16.6015625
2023-01-02T20:46:08.911Z,18.10302734375
2023-01-02T20:56:08.829Z,19.10400390625
2023-01-02T21:06:08.732Z,19.9951171875
2023-01-02T21:16:08.762Z,21.10595703125
2023-01-02T21:26:08.561Z,21.59423828125
2023-01-02T21:36:08.900Z,21.7041015625
2023-01-02T21:46:08.440Z,20.80078125
2023-01-02T21:56:08.353Z,22.20458984375
2023-01-02T22:06:08.304Z,21.9970703125
2023-01-02T22:16:08.314Z,22.802734375
2023-01-02T22:26:08.216Z,24.59716796875
2023-01-02T22:36:08.069Z,23.9013671875
2023-01-02T22:46:07.997Z,23.40087890625
2023-01-02T22:56:07.931Z,24.59716796875
2023-01-02T23:06:07.853Z,24.0966796875
2023-01-02T23:16:07.808Z,25.6103515625
2023-01-02T23:26:07.831Z,26.2939453125
2023-01-02T23:36:07.636Z,24.90234375
2023-01-02T23:46:07.699Z,24.59716796875
2023-01-02T23:56:07.483Z,23.9013671875
